Time;durP1;ratioP1;P1;durP2;ratioP2;P2;SDS_P1;SDS_P2;PMS_P1;PMS_P2;Temp;Humidity;BMP_temperature;BMP_pressure;BME280_temperature;BME280_humidity;BME280_pressure;Samples;Min_cycle;Max_cycle;Signal;HPM_P1;HPM_P2
2021/03/31 00:02:07;;;;;;;23.97;11.50;;;;;;;9.20;44.77;95579.84;4955797;28;20684;-66
2021/03/31 00:04:34;;;;;;;20.57;11.13;;;;;;;9.12;44.90;95577.97;4973269;28;20254;-66
2021/03/31 00:06:59;;;;;;;21.03;10.73;;;;;;;8.96;44.75;95561.72;4973344;28;20688;-68
2021/03/31 00:09:25;;;;;;;28.40;11.63;;;;;;;9.18;44.09;95568.72;4973091;28;20426;-69
2021/03/31 00:11:50;;;;;;;24.83;10.73;;;;;;;9.04;44.90;95570.81;4973778;28;20711;-66
2021/03/31 00:14:16;;;;;;;20.40;11.33;;;;;;;9.01;44.60;95568.75;4972948;28;20178;-69
2021/03/31 00:16:41;;;;;;;22.20;11.33;;;;;;;8.98;45.42;95567.53;4955952;28;20201;-67
2021/03/31 00:19:07;;;;;;;24.20;11.53;;;;;;;9.10;43.85;95558.88;4972966;28;20171;-66
2021/03/31 00:21:32;;;;;;;29.73;11.73;;;;;;;8.98;43.79;95542.78;4939951;28;20202;-67
2021/03/31 00:23:58;;;;;;;21.45;11.32;;;;;;;9.07;44.07;95572.03;4948032;28;718798;-67
2021/03/31 00:26:23;;;;;;;18.90;11.00;;;;;;;9.12;43.70;95562.00;4973930;28;20190;-68
2021/03/31 00:28:48;;;;;;;22.03;11.63;;;;;;;8.98;43.98;95567.53;4973868;28;20686;-69
2021/03/31 00:31:14;;;;;;;20.53;11.00;;;;;;;8.79;43.86;95547.66;4956171;28;20244;-67
2021/03/31 00:33:40;;;;;;;22.70;12.17;;;;;;;8.71;45.25;95550.03;4956461;28;20199;-67
2021/03/31 00:36:06;;;;;;;18.23;11.13;;;;;;;8.78;44.86;95551.44;4956221;28;20269;-68
2021/03/31 00:38:31;;;;;;;25.00;12.03;;;;;;;8.66;45.62;95558.19;4973588;28;20237;-67
2021/03/31 00:40:57;;;;;;;24.47;12.03;;;;;;;8.82;44.71;95550.50;4973359;28;20425;-69
2021/03/31 00:43:22;;;;;;;19.97;11.43;;;;;;;8.78;45.66;95554.09;4955963;28;20183;-66
2021/03/31 00:45:48;;;;;;;25.50;11.77;;;;;;;8.88;44.86;95543.13;4973273;28;20311;-67
2021/03/31 00:48:14;;;;;;;25.33;12.27;;;;;;;8.86;44.63;95546.06;4939837;28;20191;-68
2021/03/31 00:50:58;;;;;;;25.10;12.40;;;;;;;8.54;46.17;95543.97;4956084;28;20685;-67
2021/03/31 00:53:28;;;;;;;31.90;14.63;;;;;;;8.21;47.14;95541.75;4955809;28;20816;-67
2021/03/31 00:55:53;;;;;;;23.37;13.03;;;;;;;8.21;46.96;95539.09;4940107;28;20426;-66
2021/03/31 00:58:18;;;;;;;25.47;13.70;;;;;;;8.08;47.54;95550.66;4939729;28;20499;-68
2021/03/31 01:00:44;;;;;;;27.90;13.00;;;;;;;8.28;47.10;95551.94;4973086;28;20174;-66
2021/03/31 01:03:10;;;;;;;27.23;13.27;;;;;;;8.40;46.78;95544.13;4973234;28;20667;-69
2021/03/31 01:05:35;;;;;;;25.47;13.80;;;;;;;8.22;47.81;95538.78;4939653;28;20221;-67
2021/03/31 01:08:01;;;;;;;27.77;13.10;;;;;;;8.28;46.82;95538.63;4955658;28;20589;-67
2021/03/31 01:10:37;;;;;;;26.60;13.77;;;;;;;8.40;46.94;95541.47;4973210;28;20205;-67
2021/03/31 01:13:37;;;;;;;25.60;13.47;;;;;;;8.46;47.52;95538.31;4939443;28;20209;-67
2021/03/31 01:16:27;;;;;;;24.40;13.77;;;;;;;8.32;47.55;95542.25;4972773;28;20472;-68
2021/03/31 01:18:57;;;;;;;32.07;13.90;;;;;;;8.26;47.90;95538.16;4955951;28;20424;-67
2021/03/31 01:21:47;;;;;;;32.90;14.73;;;;;;;8.26;47.50;95532.84;4939375;28;20891;-66
2021/03/31 01:24:40;;;;;;;29.03;15.23;;;;;;;8.46;46.98;95538.31;4972458;28;20489;-67
2021/03/31 01:28:02;;;;;;;31.17;14.23;;;;;;;8.34;46.83;95537.38;4972827;28;20440;-66
2021/03/31 01:30:46;;;;;;;25.60;14.53;;;;;;;8.27;47.42;95534.41;4894691;29;20525;-67
2021/03/31 01:33:32;;;;;;;25.60;13.90;;;;;;;8.21;46.92;95539.88;4894276;29;20520;-66
2021/03/31 01:35:57;;;;;;;29.37;14.53;;;;;;;8.22;47.63;95541.44;4893580;29;21201;-67
2021/03/31 01:38:23;;;;;;;25.87;14.00;;;;;;;8.32;47.12;95542.25;4878776;29;20433;-67
2021/03/31 01:40:49;;;;;;;28.40;14.27;;;;;;;8.09;48.21;95534.41;4879047;29;20185;-69
2021/03/31 01:43:22;;;;;;;34.60;14.10;;;;;;;8.09;47.58;95541.63;4847720;29;20675;-67
2021/03/31 01:45:50;;;;;;;32.37;15.87;;;;;;;8.17;47.34;95536.28;4863297;29;20425;-67
2021/03/31 01:48:17;;;;;;;29.57;14.57;;;;;;;8.18;47.37;95542.38;4862908;29;20436;-68
2021/03/31 01:50:45;;;;;;;26.47;13.60;;;;;;;8.16;47.37;95537.38;4863320;29;20857;-66
2021/03/31 01:53:11;;;;;;;29.53;14.37;;;;;;;8.14;47.24;95536.91;4878793;29;20516;-67
2021/03/31 01:55:36;;;;;;;25.77;13.30;;;;;;;8.02;48.84;95538.63;4894323;29;20961;-66
2021/03/31 01:58:02;;;;;;;28.57;13.40;;;;;;;8.02;48.74;95541.28;4878574;29;20425;-66
2021/03/31 02:00:30;;;;;;;28.57;12.17;;;;;;;8.06;47.53;95545.66;4904853;28;20657;-69
2021/03/31 02:02:55;;;;;;;23.00;11.63;;;;;;;8.01;48.06;95545.03;4959029;28;20387;-66
2021/03/31 02:05:22;;;;;;;29.80;12.93;;;;;;;8.14;48.13;95550.22;4976356;28;20484;-67
2021/03/31 02:07:47;;;;;;;25.13;12.03;;;;;;;7.98;47.84;95548.34;4943010;28;20174;-67
2021/03/31 02:10:13;;;;;;;21.80;11.87;;;;;;;7.84;47.92;95519.22;4943015;28;20439;-67
2021/03/31 02:12:40;;;;;;;26.67;13.07;;;;;;;8.11;46.56;95537.53;4976245;28;20171;-68
2021/03/31 02:15:06;;;;;;;23.50;11.50;;;;;;;8.25;45.92;95532.06;4976290;28;20516;-68
2021/03/31 02:17:31;;;;;;;27.13;11.27;;;;;;;8.27;45.87;95539.72;4942663;28;20437;-68
2021/03/31 02:19:57;;;;;;;23.97;11.13;;;;;;;8.03;47.74;95526.91;4942758;28;21003;-70
2021/03/31 02:22:23;;;;;;;19.33;11.53;;;;;;;8.01;47.44;95535.19;4942836;28;20179;-67
2021/03/31 02:24:49;;;;;;;20.03;11.20;;;;;;;7.90;47.95;95542.66;4942561;28;20581;-67
2021/03/31 02:27:14;;;;;;;23.03;11.13;;;;;;;7.97;47.89;95536.91;4942823;28;20425;-67
2021/03/31 02:29:40;;;;;;;15.37;9.87;;;;;;;7.81;48.54;95552.53;4958752;28;20314;-69
2021/03/31 02:32:08;;;;;;;21.30;10.50;;;;;;;7.86;47.56;95548.94;4976076;28;20253;-68
2021/03/31 02:34:35;;;;;;;18.37;10.97;;;;;;;7.84;47.82;95535.16;4958017;28;20814;-68
2021/03/31 02:37:02;;;;;;;16.93;9.67;;;;;;;7.71;47.45;95530.78;4958397;28;20472;-68
2021/03/31 02:39:28;;;;;;;18.10;9.10;;;;;;;7.46;48.87;95527.72;4958674;28;20521;-69
2021/03/31 02:41:55;;;;;;;17.13;9.90;;;;;;;7.68;48.91;95540.13;4958637;28;20513;-69
2021/03/31 02:44:20;;;;;;;17.57;9.20;;;;;;;7.44;48.75;95540.56;4942359;28;20210;-67
2021/03/31 02:46:46;;;;;;;16.40;9.00;;;;;;;7.52;48.58;95539.00;4957839;28;20440;-67
2021/03/31 02:49:11;;;;;;;17.00;8.57;;;;;;;7.63;48.74;95538.44;4975723;28;20174;-68
2021/03/31 02:51:37;;;;;;;15.30;9.20;;;;;;;7.55;49.45;95539.19;4942017;28;20189;-68
2021/03/31 02:54:04;;;;;;;14.77;8.60;;;;;;;7.31;49.64;95521.00;4958254;28;20197;-67
2021/03/31 02:56:29;;;;;;;18.27;9.13;;;;;;;7.28;50.02;95532.22;4941997;28;20186;-67
2021/03/31 02:58:55;;;;;;;23.87;8.50;;;;;;;6.90;50.65;95542.53;4942253;28;20424;-69
2021/03/31 03:01:20;;;;;;;19.27;9.37;;;;;;;6.91;50.33;95532.72;4952112;28;20194;-68
2021/03/31 03:03:46;;;;;;;17.50;11.37;;;;;;;6.47;51.64;95534.34;4966009;28;20201;-67
2021/03/31 03:06:11;;;;;;;18.00;9.27;;;;;;;6.05;51.77;95521.22;4932045;28;20612;-68
2021/03/31 03:08:36;;;;;;;20.10;10.77;;;;;;;6.04;52.93;95529.50;4952524;28;20233;-67
2021/03/31 03:11:02;;;;;;;22.60;11.17;;;;;;;6.17;52.65;95533.16;4943839;29;20179;-67
2021/03/31 03:13:28;;;;;;;21.83;11.27;;;;;;;6.49;52.04;95532.94;4938448;29;20190;-66
2021/03/31 03:15:57;;;;;;;24.20;11.57;;;;;;;6.41;51.52;95512.44;4955684;28;20218;-65
2021/03/31 03:18:22;;;;;;;28.20;13.47;;;;;;;6.14;52.10;95537.22;4960945;28;20184;-66
2021/03/31 03:20:48;;;;;;;29.53;14.23;;;;;;;6.16;52.49;95531.59;4994651;28;20495;-68
2021/03/31 03:23:15;;;;;;;29.10;14.25;;;;;;;6.29;52.57;95528.13;4976818;28;20657;-68
2021/03/31 03:25:40;;;;;;;30.03;15.03;;;;;;;6.34;52.75;95535.94;4960969;28;20324;-68
2021/03/31 03:28:06;;;;;;;26.60;13.27;;;;;;;6.24;53.24;95528.25;4960856;28;20475;-69
2021/03/31 03:30:31;;;;;;;27.90;14.63;;;;;;;6.56;51.59;95540.47;4961056;28;20177;-69
2021/03/31 03:32:57;;;;;;;33.67;14.83;;;;;;;6.80;51.59;95540.16;4960875;28;20169;-67
2021/03/31 03:35:24;;;;;;;29.97;13.83;;;;;;;7.00;51.20;95529.00;4976879;28;20533;-69
2021/03/31 03:37:50;;;;;;;34.93;14.97;;;;;;;7.11;51.31;95535.59;4960724;28;20173;-66
2021/03/31 03:40:16;;;;;;;24.13;14.10;;;;;;;7.02;51.09;95532.13;4976577;28;20968;-66
2021/03/31 03:42:41;;;;;;;27.43;13.13;;;;;;;6.96;51.58;95530.72;4976768;28;20424;-66
2021/03/31 03:45:07;;;;;;;30.30;14.93;;;;;;;7.09;50.48;95529.03;4960330;28;20475;-67
2021/03/31 03:47:33;;;;;;;33.40;16.07;;;;;;;7.14;50.15;95537.66;4944652;28;20280;-67
2021/03/31 03:49:59;;;;;;;26.70;14.10;;;;;;;7.12;51.57;95534.50;4976591;28;20425;-69
2021/03/31 03:52:25;;;;;;;29.53;16.73;;;;;;;6.92;51.91;95532.41;4976523;28;20200;-70
2021/03/31 03:54:51;;;;;;;24.90;13.70;;;;;;;6.49;53.12;95527.63;4976192;28;20182;-66
2021/03/31 03:57:27;;;;;;;31.33;16.17;;;;;;;6.89;52.24;95520.50;4993917;28;20184;-69
2021/03/31 03:59:53;;;;;;;27.87;14.67;;;;;;;6.55;52.61;95526.41;4977189;28;20950;-68
2021/03/31 04:02:19;;;;;;;27.93;14.43;;;;;;;6.28;53.54;95531.84;4993805;28;20425;-66
2021/03/31 04:04:44;;;;;;;32.73;14.87;;;;;;;6.36;53.64;95526.63;4993729;28;20488;-67
2021/03/31 04:07:10;;;;;;;25.03;13.60;;;;;;;6.70;52.45;95533.22;4993502;28;20178;-66
2021/03/31 04:09:35;;;;;;;40.97;14.77;;;;;;;6.73;52.34;95532.59;4993596;28;20174;-69
2021/03/31 04:12:03;;;;;;;28.87;14.73;;;;;;;6.79;52.45;95536.72;4976038;28;20174;-67
2021/03/31 04:14:29;;;;;;;30.00;15.10;;;;;;;6.79;52.51;95539.38;4976382;28;20240;-69
2021/03/31 04:16:54;;;;;;;30.90;14.93;;;;;;;6.94;52.24;95548.81;4975809;28;20851;-67
2021/03/31 04:19:20;;;;;;;26.17;14.20;;;;;;;6.87;52.18;95543.16;4976153;28;20184;-70
2021/03/31 04:21:45;;;;;;;24.27;13.00;;;;;;;7.04;51.64;95545.88;4959628;28;20170;-66
2021/03/31 04:24:12;;;;;;;30.90;14.50;;;;;;;6.95;51.94;95553.00;4982338;28;20216;-67
2021/03/31 04:26:37;;;;;;;35.67;14.00;;;;;;;7.06;51.83;95546.34;4969712;28;20176;-69
2021/03/31 04:29:03;;;;;;;24.60;13.33;;;;;;;6.84;52.20;95546.41;4959806;28;20432;-67
2021/03/31 04:31:28;;;;;;;30.17;14.33;;;;;;;5.91;54.78;95551.50;4959896;28;20751;-67
2021/03/31 04:33:54;;;;;;;33.70;15.17;;;;;;;5.64;54.74;95547.03;4975671;28;20182;-67
2021/03/31 04:36:19;;;;;;;36.27;13.90;;;;;;;5.86;54.56;95551.63;4959812;28;20177;-69
2021/03/31 04:38:49;;;;;;;28.33;13.63;;;;;;;6.01;53.75;95546.78;4992766;28;20169;-68
2021/03/31 04:41:15;;;;;;;31.40;14.53;;;;;;;6.12;53.62;95560.63;4993040;28;20162;-66
2021/03/31 04:43:40;;;;;;;27.73;14.10;;;;;;;5.98;53.42;95550.03;4959340;28;20471;-67
2021/03/31 04:46:08;;;;;;;29.47;13.80;;;;;;;6.20;53.30;95551.94;4959481;28;20193;-67
2021/03/31 04:48:33;;;;;;;25.87;13.03;;;;;;;6.55;52.76;95558.25;4992615;28;20269;-69
2021/03/31 04:50:59;;;;;;;32.03;15.13;;;;;;;6.70;52.34;95565.06;4992969;28;20409;-70
2021/03/31 04:53:24;;;;;;;35.30;15.07;;;;;;;6.56;52.79;95569.66;4992552;28;20192;-67
2021/03/31 04:55:50;;;;;;;30.23;12.87;;;;;;;6.72;52.79;95565.53;4992731;28;20181;-66
2021/03/31 04:58:15;;;;;;;28.10;13.30;;;;;;;6.82;52.18;95552.03;4975630;28;20173;-70
2021/03/31 05:00:41;;;;;;;30.13;13.13;;;;;;;6.73;52.74;95555.72;4959040;28;20536;-65
2021/03/31 05:03:06;;;;;;;32.93;15.60;;;;;;;7.03;50.57;95557.59;4975290;28;20273;-68
2021/03/31 05:05:32;;;;;;;26.50;12.67;;;;;;;6.74;52.26;95560.72;4974990;28;20217;-71
2021/03/31 05:07:57;;;;;;;28.70;13.53;;;;;;;6.36;53.37;95555.00;4975334;28;20174;-70
2021/03/31 05:10:23;;;;;;;30.87;15.03;;;;;;;6.60;52.33;95562.66;4974862;28;20180;-67
2021/03/31 05:12:49;;;;;;;31.77;14.27;;;;;;;6.86;51.92;95550.34;4992529;28;20320;-67
2021/03/31 05:15:15;;;;;;;35.73;14.60;;;;;;;7.03;52.29;95557.59;4974726;28;20424;-67
2021/03/31 05:17:41;;;;;;;31.00;14.53;;;;;;;7.17;51.77;95560.16;4992447;28;20211;-67
2021/03/31 05:20:06;;;;;;;34.33;16.13;;;;;;;7.07;51.69;95558.56;4992233;28;20169;-68
2021/03/31 05:22:32;;;;;;;29.40;15.40;;;;;;;7.37;50.38;95562.25;4975109;28;20178;-68
2021/03/31 05:24:57;;;;;;;23.17;12.77;;;;;;;7.34;51.26;95562.09;4991930;28;20232;-68
2021/03/31 05:27:23;;;;;;;34.80;14.67;;;;;;;7.36;51.83;95559.94;4991799;28;20664;-67
2021/03/31 05:29:49;;;;;;;32.30;16.60;;;;;;;7.60;50.37;95556.88;4992269;28;20185;-67
2021/03/31 05:32:14;;;;;;;30.80;14.60;;;;;;;7.50;50.22;95560.59;4974613;28;20562;-69
2021/03/31 05:34:40;;;;;;;33.90;14.67;;;;;;;7.69;50.93;95560.34;4991663;28;20216;-69
2021/03/31 05:37:05;;;;;;;34.03;15.47;;;;;;;7.87;50.07;95567.25;4991897;28;20208;-68
2021/03/31 05:39:31;;;;;;;25.27;14.03;;;;;;;8.02;49.49;95566.00;4974856;28;20247;-69
2021/03/31 05:41:56;;;;;;;32.73;14.37;;;;;;;8.02;50.55;95559.88;4991692;28;20181;-67
2021/03/31 05:44:22;;;;;;;34.40;14.97;;;;;;;8.19;49.43;95560.72;4974718;28;20209;-68
2021/03/31 05:46:49;;;;;;;31.97;15.33;;;;;;;8.43;48.53;95562.13;4992148;28;20178;-71
2021/03/31 05:49:15;;;;;;;30.20;14.70;;;;;;;8.30;48.00;95560.38;4974986;28;20184;-68
2021/03/31 05:51:40;;;;;;;23.63;14.00;;;;;;;8.39;47.67;95553.22;4958645;28;20420;-70
2021/03/31 05:54:06;;;;;;;32.83;14.17;;;;;;;8.23;48.00;95558.97;4991824;28;20165;-73
2021/03/31 05:56:32;;;;;;;28.07;14.40;;;;;;;8.32;48.14;95563.53;4991791;28;20169;-71
2021/03/31 05:58:58;;;;;;;30.23;13.67;;;;;;;8.48;48.25;95560.09;4970672;28;20182;-66
2021/03/31 06:01:24;;;;;;;37.50;16.10;;;;;;;8.72;46.06;95562.25;4990544;28;20165;-69
2021/03/31 06:03:49;;;;;;;27.77;13.07;;;;;;;8.86;45.94;95559.38;4972233;28;20530;-71
2021/03/31 06:06:15;;;;;;;30.87;13.67;;;;;;;8.92;46.60;95557.34;4973755;28;20196;-71
2021/03/31 06:08:40;;;;;;;32.50;14.10;;;;;;;9.02;45.56;95559.66;4974211;28;20159;-68
2021/03/31 06:11:05;;;;;;;27.87;13.00;;;;;;;9.11;45.45;95567.66;4957964;28;20184;-67
2021/03/31 06:14:07;;;;;;;26.27;12.37;;;;;;;9.22;45.20;95559.00;4991333;28;20162;-69
2021/03/31 06:16:46;;;;;;;29.63;11.77;;;;;;;9.24;44.45;95561.31;4914839;29;20176;-70
2021/03/31 06:19:15;;;;;;;26.70;13.63;;;;;;;9.41;44.14;95552.47;4909050;29;20524;-67
2021/03/31 06:21:42;;;;;;;28.47;12.20;;;;;;;9.42;44.31;95565.47;4886051;29;20516;-68
2021/03/31 06:24:20;;;;;;;25.90;12.87;;;;;;;9.43;44.53;95563.63;4878177;29;21063;-69
2021/03/31 06:26:45;;;;;;;36.77;13.03;;;;;;;9.59;44.41;95555.84;4893917;29;20468;-68
2021/03/31 06:29:11;;;;;;;23.20;13.13;;;;;;;9.69;43.96;95564.25;4877964;29;20442;-70
2021/03/31 06:31:38;;;;;;;30.13;13.73;;;;;;;9.69;44.13;95558.91;4893866;29;20249;-68
2021/03/31 06:34:08;;;;;;;30.53;14.10;;;;;;;9.74;43.55;95557.97;4877924;29;20175;-69
2021/03/31 06:36:48;;;;;;;25.20;12.70;;;;;;;9.55;45.25;95555.72;4894892;29;20431;-67
2021/03/31 06:39:37;;;;;;;33.80;13.93;;;;;;;9.68;45.29;95549.34;4910320;29;20440;-68
2021/03/31 06:42:07;;;;;;;27.83;13.67;;;;;;;9.86;45.11;95551.91;4895068;29;20847;-69
2021/03/31 06:49:35;;;;;;;25.03;13.77;;;;;;;10.46;42.89;95553.41;4924475;28;20849;-68
2021/03/31 06:52:05;;;;;;;28.53;12.37;;;;;;;10.51;42.29;95551.31;4974417;28;20609;-70
2021/03/31 06:54:39;;;;;;;30.30;11.67;;;;;;;10.50;42.72;95548.97;4987503;28;20436;-68
2021/03/31 06:57:05;;;;;;;15.43;10.47;;;;;;;10.47;41.43;95554.94;4978803;28;20416;-71
2021/03/31 06:59:31;;;;;;;26.37;11.27;;;;;;;10.53;40.98;95553.63;4975315;28;20456;-68
2021/03/31 07:01:57;;;;;;;29.63;12.83;;;;;;;10.46;41.84;95554.19;4994838;28;20182;-68
2021/03/31 07:04:23;;;;;;;20.17;10.50;;;;;;;10.50;41.00;95552.41;4944740;28;20715;-70
2021/03/31 07:07:18;;;;;;;25.73;11.40;;;;;;;10.38;41.22;95551.56;4977125;28;20998;-69
2021/03/31 07:09:44;;;;;;;24.03;13.20;;;;;;;10.55;41.43;95554.88;4931914;29;20539;-68
2021/03/31 07:12:22;;;;;;;18.23;10.10;;;;;;;10.44;41.22;95552.94;4928318;29;20463;-71
2021/03/31 07:14:49;;;;;;;19.43;10.33;;;;;;;10.43;40.93;95546.03;4941110;29;20918;-69
2021/03/31 07:17:21;;;;;;;26.50;11.03;;;;;;;10.40;40.78;95544.81;4929890;29;20450;-68
2021/03/31 07:19:47;;;;;;;22.73;12.60;;;;;;;10.45;40.36;95555.28;4917259;29;20511;-69
2021/03/31 07:22:12;;;;;;;29.20;10.60;;;;;;;10.55;39.93;95559.41;4902826;29;20448;-70
2021/03/31 07:24:38;;;;;;;22.20;10.73;;;;;;;10.38;39.84;95554.22;4901711;29;20329;-69
